sensor_id;sensor_type;location;lat;lon;timestamp;P1;durP1;ratioP1;P2;durP2;ratioP2
59127;SDS011;44912;52.754;5.994;2023-01-26T00:00:05;54.80;;;20.63;;
59127;SDS011;44912;52.754;5.994;2023-01-26T00:02:31;51.28;;;19.67;;
59127;SDS011;44912;52.754;5.994;2023-01-26T00:04:57;51.90;;;19.90;;
59127;SDS011;44912;52.754;5.994;2023-01-26T00:07:22;43.63;;;18.30;;
59127;SDS011;44912;52.754;5.994;2023-01-26T00:09:48;53.13;;;20.50;;
59127;SDS011;44912;52.754;5.994;2023-01-26T00:12:13;51.05;;;20.70;;
59127;SDS011;44912;52.754;5.994;2023-01-26T00:14:39;53.25;;;21.35;;
59127;SDS011;44912;52.754;5.994;2023-01-26T00:17:17;52.72;;;22.27;;
59127;SDS011;44912;52.754;5.994;2023-01-26T00:19:50;47.88;;;19.27;;
59127;SDS011;44912;52.754;5.994;2023-01-26T00:22:17;52.13;;;20.67;;
59127;SDS011;44912;52.754;5.994;2023-01-26T00:24:43;49.97;;;19.50;;
59127;SDS011;44912;52.754;5.994;2023-01-26T00:27:08;55.65;;;21.60;;
59127;SDS011;44912;52.754;5.994;2023-01-26T00:29:34;48.28;;;19.02;;
59127;SDS011;44912;52.754;5.994;2023-01-26T00:31:59;52.38;;;20.80;;
59127;SDS011;44912;52.754;5.994;2023-01-26T00:34:25;54.90;;;22.33;;
59127;SDS011;44912;52.754;5.994;2023-01-26T00:36:50;53.08;;;20.77;;
59127;SDS011;44912;52.754;5.994;2023-01-26T00:39:16;53.00;;;21.13;;
59127;SDS011;44912;52.754;5.994;2023-01-26T00:41:42;52.15;;;21.45;;
59127;SDS011;44912;52.754;5.994;2023-01-26T00:44:26;57.22;;;22.75;;
59127;SDS011;44912;52.754;5.994;2023-01-26T00:46:52;57.78;;;21.45;;
59127;SDS011;44912;52.754;5.994;2023-01-26T00:49:17;69.25;;;23.25;;
59127;SDS011;44912;52.754;5.994;2023-01-26T00:51:43;54.72;;;21.70;;
59127;SDS011;44912;52.754;5.994;2023-01-26T00:54:08;50.30;;;21.35;;
59127;SDS011;44912;52.754;5.994;2023-01-26T00:56:34;54.10;;;22.17;;
59127;SDS011;44912;52.754;5.994;2023-01-26T00:59:00;57.65;;;22.15;;
59127;SDS011;44912;52.754;5.994;2023-01-26T01:01:25;57.05;;;22.52;;
59127;SDS011;44912;52.754;5.994;2023-01-26T01:03:51;58.20;;;21.50;;
59127;SDS011;44912;52.754;5.994;2023-01-26T01:06:16;58.47;;;23.17;;
59127;SDS011;44912;52.754;5.994;2023-01-26T01:08:42;58.03;;;22.58;;
59127;SDS011;44912;52.754;5.994;2023-01-26T01:11:09;61.70;;;22.75;;
59127;SDS011;44912;52.754;5.994;2023-01-26T01:13:35;59.03;;;22.65;;
59127;SDS011;44912;52.754;5.994;2023-01-26T01:16:06;65.25;;;23.67;;
59127;SDS011;44912;52.754;5.994;2023-01-26T01:18:32;63.45;;;22.83;;
59127;SDS011;44912;52.754;5.994;2023-01-26T01:20:58;60.92;;;23.85;;
59127;SDS011;44912;52.754;5.994;2023-01-26T01:23:26;61.05;;;22.83;;
59127;SDS011;44912;52.754;5.994;2023-01-26T01:25:56;63.35;;;23.52;;
59127;SDS011;44912;52.754;5.994;2023-01-26T01:28:23;61.03;;;23.40;;
59127;SDS011;44912;52.754;5.994;2023-01-26T01:30:48;64.20;;;24.08;;
59127;SDS011;44912;52.754;5.994;2023-01-26T01:33:14;57.95;;;23.60;;
59127;SDS011;44912;52.754;5.994;2023-01-26T01:35:39;70.80;;;24.42;;
59127;SDS011;44912;52.754;5.994;2023-01-26T01:38:05;70.32;;;25.60;;
59127;SDS011;44912;52.754;5.994;2023-01-26T01:40:30;61.90;;;23.17;;
59127;SDS011;44912;52.754;5.994;2023-01-26T01:42:56;58.70;;;23.08;;
59127;SDS011;44912;52.754;5.994;2023-01-26T01:47:51;68.28;;;24.13;;
59127;SDS011;44912;52.754;5.994;2023-01-26T01:50:22;60.67;;;24.88;;
59127;SDS011;44912;52.754;5.994;2023-01-26T01:52:48;81.40;;;27.60;;
59127;SDS011;44912;52.754;5.994;2023-01-26T01:55:15;79.93;;;24.90;;
59127;SDS011;44912;52.754;5.994;2023-01-26T01:57:46;74.15;;;25.17;;
59127;SDS011;44912;52.754;5.994;2023-01-26T02:00:16;70.10;;;25.45;;
59127;SDS011;44912;52.754;5.994;2023-01-26T02:02:45;71.22;;;25.30;;
59127;SDS011;44912;52.754;5.994;2023-01-26T02:05:38;97.88;;;26.80;;
59127;SDS011;44912;52.754;5.994;2023-01-26T02:08:08;73.20;;;25.40;;
59127;SDS011;44912;52.754;5.994;2023-01-26T02:10:37;89.90;;;26.67;;
59127;SDS011;44912;52.754;5.994;2023-01-26T02:13:03;83.53;;;27.85;;
59127;SDS011;44912;52.754;5.994;2023-01-26T02:15:30;71.30;;;25.80;;
59127;SDS011;44912;52.754;5.994;2023-01-26T02:17:56;88.68;;;28.40;;
59127;SDS011;44912;52.754;5.994;2023-01-26T02:20:31;81.05;;;27.20;;
59127;SDS011;44912;52.754;5.994;2023-01-26T02:23:10;80.43;;;26.83;;
59127;SDS011;44912;52.754;5.994;2023-01-26T02:26:14;82.25;;;26.92;;
59127;SDS011;44912;52.754;5.994;2023-01-26T02:28:51;81.43;;;25.95;;
59127;SDS011;44912;52.754;5.994;2023-01-26T02:31:17;67.78;;;26.48;;
59127;SDS011;44912;52.754;5.994;2023-01-26T02:33:43;85.75;;;27.65;;
59127;SDS011;44912;52.754;5.994;2023-01-26T02:36:17;98.68;;;27.98;;
59127;SDS011;44912;52.754;5.994;2023-01-26T02:38:45;109.97;;;29.57;;
59127;SDS011;44912;52.754;5.994;2023-01-26T02:44:02;75.45;;;26.08;;
59127;SDS011;44912;52.754;5.994;2023-01-26T02:46:31;81.03;;;26.75;;
59127;SDS011;44912;52.754;5.994;2023-01-26T02:48:56;109.35;;;28.38;;
59127;SDS011;44912;52.754;5.994;2023-01-26T02:51:41;104.38;;;28.50;;
59127;SDS011;44912;52.754;5.994;2023-01-26T02:54:06;103.57;;;30.00;;
59127;SDS011;44912;52.754;5.994;2023-01-26T02:56:32;96.38;;;29.25;;
59127;SDS011;44912;52.754;5.994;2023-01-26T02:58:57;113.85;;;29.85;;
59127;SDS011;44912;52.754;5.994;2023-01-26T03:01:23;93.97;;;29.70;;
59127;SDS011;44912;52.754;5.994;2023-01-26T03:03:48;97.18;;;29.08;;
59127;SDS011;44912;52.754;5.994;2023-01-26T03:06:14;121.57;;;31.23;;
59127;SDS011;44912;52.754;5.994;2023-01-26T03:08:40;117.97;;;29.00;;
59127;SDS011;44912;52.754;5.994;2023-01-26T03:11:06;100.43;;;28.67;;
59127;SDS011;44912;52.754;5.994;2023-01-26T03:13:32;94.72;;;28.30;;
59127;SDS011;44912;52.754;5.994;2023-01-26T03:15:58;95.88;;;27.70;;
59127;SDS011;44912;52.754;5.994;2023-01-26T03:18:31;98.82;;;28.85;;
59127;SDS011;44912;52.754;5.994;2023-01-26T03:21:16;108.72;;;29.63;;
59127;SDS011;44912;52.754;5.994;2023-01-26T03:26:45;95.22;;;27.10;;
59127;SDS011;44912;52.754;5.994;2023-01-26T03:29:29;117.85;;;29.60;;
59127;SDS011;44912;52.754;5.994;2023-01-26T03:31:55;109.07;;;27.90;;
59127;SDS011;44912;52.754;5.994;2023-01-26T03:34:23;122.65;;;29.77;;
59127;SDS011;44912;52.754;5.994;2023-01-26T03:36:49;112.22;;;30.08;;
59127;SDS011;44912;52.754;5.994;2023-01-26T03:39:14;111.35;;;29.65;;
59127;SDS011;44912;52.754;5.994;2023-01-26T03:41:58;126.60;;;30.75;;
59127;SDS011;44912;52.754;5.994;2023-01-26T03:47:27;135.88;;;29.75;;
59127;SDS011;44912;52.754;5.994;2023-01-26T03:50:11;127.63;;;29.90;;
59127;SDS011;44912;52.754;5.994;2023-01-26T03:52:55;146.20;;;30.75;;
59127;SDS011;44912;52.754;5.994;2023-01-26T03:55:39;135.45;;;30.25;;
59127;SDS011;44912;52.754;5.994;2023-01-26T03:58:24;106.80;;;29.35;;
59127;SDS011;44912;52.754;5.994;2023-01-26T04:00:53;168.50;;;32.47;;
59127;SDS011;44912;52.754;5.994;2023-01-26T04:03:19;143.60;;;31.38;;
59127;SDS011;44912;52.754;5.994;2023-01-26T04:06:03;146.85;;;31.58;;
59127;SDS011;44912;52.754;5.994;2023-01-26T04:08:47;137.75;;;30.95;;
59127;SDS011;44912;52.754;5.994;2023-01-26T04:11:13;151.95;;;29.85;;
59127;SDS011;44912;52.754;5.994;2023-01-26T04:13:38;159.50;;;32.40;;
59127;SDS011;44912;52.754;5.994;2023-01-26T04:16:22;203.88;;;34.28;;
59127;SDS011;44912;52.754;5.994;2023-01-26T04:19:06;145.60;;;32.70;;
59127;SDS011;44912;52.754;5.994;2023-01-26T04:21:51;162.80;;;32.38;;
59127;SDS011;44912;52.754;5.994;2023-01-26T04:24:16;150.27;;;31.80;;
59127;SDS011;44912;52.754;5.994;2023-01-26T04:26:45;157.25;;;31.55;;
59127;SDS011;44912;52.754;5.994;2023-01-26T04:29:12;123.00;;;30.95;;
59127;SDS011;44912;52.754;5.994;2023-01-26T04:31:40;108.75;;;30.98;;
59127;SDS011;44912;52.754;5.994;2023-01-26T04:34:08;117.75;;;29.45;;
59127;SDS011;44912;52.754;5.994;2023-01-26T04:36:36;169.80;;;32.03;;
59127;SDS011;44912;52.754;5.994;2023-01-26T04:39:02;144.60;;;30.63;;
59127;SDS011;44912;52.754;5.994;2023-01-26T04:41:28;100.78;;;29.95;;
59127;SDS011;44912;52.754;5.994;2023-01-26T04:43:54;102.65;;;30.30;;
59127;SDS011;44912;52.754;5.994;2023-01-26T04:46:20;133.82;;;31.30;;
59127;SDS011;44912;52.754;5.994;2023-01-26T04:48:46;97.93;;;29.88;;
59127;SDS011;44912;52.754;5.994;2023-01-26T04:51:12;109.82;;;31.90;;
59127;SDS011;44912;52.754;5.994;2023-01-26T04:53:39;114.65;;;31.08;;
59127;SDS011;44912;52.754;5.994;2023-01-26T04:56:05;106.70;;;29.80;;
59127;SDS011;44912;52.754;5.994;2023-01-26T04:58:33;146.85;;;31.40;;
59127;SDS011;44912;52.754;5.994;2023-01-26T05:00:58;102.40;;;29.90;;
59127;SDS011;44912;52.754;5.994;2023-01-26T05:03:24;112.25;;;29.48;;
59127;SDS011;44912;52.754;5.994;2023-01-26T05:05:51;142.02;;;31.50;;
59127;SDS011;44912;52.754;5.994;2023-01-26T05:08:18;119.13;;;31.33;;
59127;SDS011;44912;52.754;5.994;2023-01-26T05:10:44;164.50;;;32.30;;
59127;SDS011;44912;52.754;5.994;2023-01-26T05:13:10;96.72;;;29.40;;
59127;SDS011;44912;52.754;5.994;2023-01-26T05:15:36;110.45;;;30.90;;
59127;SDS011;44912;52.754;5.994;2023-01-26T05:18:02;159.32;;;32.20;;
59127;SDS011;44912;52.754;5.994;2023-01-26T05:20:28;210.07;;;34.33;;
59127;SDS011;44912;52.754;5.994;2023-01-26T05:22:54;169.55;;;33.63;;
59127;SDS011;44912;52.754;5.994;2023-01-26T05:25:20;101.60;;;30.13;;
59127;SDS011;44912;52.754;5.994;2023-01-26T05:27:46;114.53;;;31.23;;
59127;SDS011;44912;52.754;5.994;2023-01-26T05:30:12;133.07;;;32.17;;
59127;SDS011;44912;52.754;5.994;2023-01-26T05:32:38;173.15;;;34.55;;
59127;SDS011;44912;52.754;5.994;2023-01-26T05:35:04;106.90;;;30.83;;
59127;SDS011;44912;52.754;5.994;2023-01-26T05:37:30;109.57;;;32.05;;
59127;SDS011;44912;52.754;5.994;2023-01-26T05:39:57;110.35;;;31.52;;
59127;SDS011;44912;52.754;5.994;2023-01-26T05:42:22;134.75;;;33.10;;
59127;SDS011;44912;52.754;5.994;2023-01-26T05:44:48;128.98;;;30.77;;
59127;SDS011;44912;52.754;5.994;2023-01-26T05:47:14;228.05;;;34.17;;
59127;SDS011;44912;52.754;5.994;2023-01-26T05:49:39;176.65;;;31.88;;
59127;SDS011;44912;52.754;5.994;2023-01-26T05:52:10;210.20;;;32.88;;
59127;SDS011;44912;52.754;5.994;2023-01-26T05:54:38;278.20;;;37.90;;
59127;SDS011;44912;52.754;5.994;2023-01-26T05:57:03;160.45;;;31.35;;
59127;SDS011;44912;52.754;5.994;2023-01-26T05:59:29;155.95;;;33.25;;
59127;SDS011;44912;52.754;5.994;2023-01-26T06:01:55;216.52;;;33.00;;
59127;SDS011;44912;52.754;5.994;2023-01-26T06:04:21;181.82;;;32.30;;
59127;SDS011;44912;52.754;5.994;2023-01-26T06:06:47;232.93;;;35.60;;
59127;SDS011;44912;52.754;5.994;2023-01-26T06:09:13;235.73;;;36.08;;
59127;SDS011;44912;52.754;5.994;2023-01-26T06:11:38;209.40;;;34.45;;
59127;SDS011;44912;52.754;5.994;2023-01-26T06:14:04;271.33;;;34.75;;
59127;SDS011;44912;52.754;5.994;2023-01-26T06:16:29;248.27;;;35.70;;
59127;SDS011;44912;52.754;5.994;2023-01-26T06:18:55;190.35;;;31.75;;
59127;SDS011;44912;52.754;5.994;2023-01-26T06:21:20;234.65;;;33.42;;
59127;SDS011;44912;52.754;5.994;2023-01-26T06:23:46;266.85;;;32.88;;
59127;SDS011;44912;52.754;5.994;2023-01-26T06:26:12;319.65;;;36.50;;
59127;SDS011;44912;52.754;5.994;2023-01-26T06:28:39;324.60;;;35.03;;
59127;SDS011;44912;52.754;5.994;2023-01-26T06:31:05;333.35;;;36.35;;
59127;SDS011;44912;52.754;5.994;2023-01-26T06:33:32;348.02;;;37.95;;
59127;SDS011;44912;52.754;5.994;2023-01-26T06:36:01;217.40;;;31.67;;
59127;SDS011;44912;52.754;5.994;2023-01-26T06:38:30;316.27;;;33.22;;
59127;SDS011;44912;52.754;5.994;2023-01-26T06:41:03;301.88;;;34.97;;
59127;SDS011;44912;52.754;5.994;2023-01-26T06:43:31;292.13;;;34.72;;
59127;SDS011;44912;52.754;5.994;2023-01-26T06:46:00;161.95;;;31.20;;
59127;SDS011;44912;52.754;5.994;2023-01-26T06:48:28;143.23;;;29.98;;
59127;SDS011;44912;52.754;5.994;2023-01-26T06:50:56;144.10;;;31.75;;
59127;SDS011;44912;52.754;5.994;2023-01-26T06:56:05;521.17;;;38.72;;
59127;SDS011;44912;52.754;5.994;2023-01-26T06:58:31;160.70;;;33.15;;
59127;SDS011;44912;52.754;5.994;2023-01-26T07:00:56;491.88;;;36.65;;
59127;SDS011;44912;52.754;5.994;2023-01-26T07:03:22;538.55;;;39.75;;
59127;SDS011;44912;52.754;5.994;2023-01-26T07:05:48;634.33;;;41.95;;
59127;SDS011;44912;52.754;5.994;2023-01-26T07:08:13;516.28;;;39.40;;
59127;SDS011;44912;52.754;5.994;2023-01-26T07:10:39;493.30;;;39.47;;
59127;SDS011;44912;52.754;5.994;2023-01-26T07:13:05;659.95;;;42.92;;
59127;SDS011;44912;52.754;5.994;2023-01-26T07:15:31;449.80;;;35.85;;
59127;SDS011;44912;52.754;5.994;2023-01-26T07:17:57;405.27;;;34.35;;
59127;SDS011;44912;52.754;5.994;2023-01-26T07:20:23;513.78;;;36.60;;
59127;SDS011;44912;52.754;5.994;2023-01-26T07:22:49;237.50;;;31.45;;
59127;SDS011;44912;52.754;5.994;2023-01-26T07:25:16;420.17;;;34.83;;
59127;SDS011;44912;52.754;5.994;2023-01-26T07:27:42;341.35;;;31.65;;
59127;SDS011;44912;52.754;5.994;2023-01-26T07:30:08;348.40;;;33.53;;
59127;SDS011;44912;52.754;5.994;2023-01-26T07:32:34;406.08;;;32.47;;
59127;SDS011;44912;52.754;5.994;2023-01-26T07:35:00;463.65;;;35.92;;
59127;SDS011;44912;52.754;5.994;2023-01-26T07:37:29;576.88;;;39.38;;
59127;SDS011;44912;52.754;5.994;2023-01-26T07:39:55;370.88;;;31.33;;
59127;SDS011;44912;52.754;5.994;2023-01-26T07:42:20;337.02;;;29.67;;
59127;SDS011;44912;52.754;5.994;2023-01-26T07:44:46;206.55;;;26.65;;
59127;SDS011;44912;52.754;5.994;2023-01-26T07:47:11;133.45;;;24.60;;
59127;SDS011;44912;52.754;5.994;2023-01-26T07:49:38;94.32;;;23.02;;
59127;SDS011;44912;52.754;5.994;2023-01-26T07:52:04;113.85;;;21.45;;
59127;SDS011;44912;52.754;5.994;2023-01-26T07:54:30;104.70;;;21.70;;
59127;SDS011;44912;52.754;5.994;2023-01-26T07:56:56;101.82;;;21.00;;
59127;SDS011;44912;52.754;5.994;2023-01-26T07:59:21;99.38;;;21.67;;
59127;SDS011;44912;52.754;5.994;2023-01-26T08:01:48;94.22;;;19.85;;
59127;SDS011;44912;52.754;5.994;2023-01-26T08:04:15;70.18;;;19.00;;
59127;SDS011;44912;52.754;5.994;2023-01-26T08:06:40;85.60;;;18.77;;
59127;SDS011;44912;52.754;5.994;2023-01-26T08:09:06;73.75;;;18.45;;
59127;SDS011;44912;52.754;5.994;2023-01-26T08:11:32;73.38;;;17.15;;
59127;SDS011;44912;52.754;5.994;2023-01-26T08:13:57;66.38;;;16.42;;
59127;SDS011;44912;52.754;5.994;2023-01-26T08:16:23;58.65;;;14.57;;
59127;SDS011;44912;52.754;5.994;2023-01-26T08:18:48;63.97;;;13.70;;
59127;SDS011;44912;52.754;5.994;2023-01-26T08:21:15;57.40;;;12.93;;
59127;SDS011;44912;52.754;5.994;2023-01-26T08:23:42;52.20;;;11.50;;
59127;SDS011;44912;52.754;5.994;2023-01-26T08:26:09;51.65;;;10.43;;
59127;SDS011;44912;52.754;5.994;2023-01-26T08:28:36;62.13;;;11.13;;
59127;SDS011;44912;52.754;5.994;2023-01-26T08:31:06;54.08;;;9.05;;
59127;SDS011;44912;52.754;5.994;2023-01-26T08:33:35;44.65;;;8.63;;
59127;SDS011;44912;52.754;5.994;2023-01-26T08:36:01;53.00;;;9.82;;
59127;SDS011;44912;52.754;5.994;2023-01-26T08:38:29;49.25;;;9.07;;
59127;SDS011;44912;52.754;5.994;2023-01-26T08:40:56;45.95;;;8.70;;
59127;SDS011;44912;52.754;5.994;2023-01-26T08:43:22;37.38;;;8.32;;
59127;SDS011;44912;52.754;5.994;2023-01-26T08:45:47;42.15;;;8.40;;
59127;SDS011;44912;52.754;5.994;2023-01-26T08:48:13;39.08;;;6.88;;
59127;SDS011;44912;52.754;5.994;2023-01-26T08:50:38;42.30;;;7.18;;
59127;SDS011;44912;52.754;5.994;2023-01-26T08:53:04;51.70;;;7.15;;
59127;SDS011;44912;52.754;5.994;2023-01-26T08:55:30;42.75;;;6.85;;
59127;SDS011;44912;52.754;5.994;2023-01-26T08:57:56;41.13;;;6.78;;
59127;SDS011;44912;52.754;5.994;2023-01-26T09:00:22;39.65;;;5.70;;
59127;SDS011;44912;52.754;5.994;2023-01-26T09:02:48;43.80;;;7.18;;
59127;SDS011;44912;52.754;5.994;2023-01-26T09:05:15;36.28;;;5.93;;
59127;SDS011;44912;52.754;5.994;2023-01-26T09:07:41;41.65;;;5.50;;
59127;SDS011;44912;52.754;5.994;2023-01-26T09:10:07;43.90;;;6.57;;
59127;SDS011;44912;52.754;5.994;2023-01-26T09:12:33;38.97;;;6.25;;
59127;SDS011;44912;52.754;5.994;2023-01-26T09:14:58;35.10;;;5.53;;
59127;SDS011;44912;52.754;5.994;2023-01-26T09:17:24;29.38;;;5.05;;
59127;SDS011;44912;52.754;5.994;2023-01-26T09:19:49;36.58;;;4.85;;
59127;SDS011;44912;52.754;5.994;2023-01-26T09:22:15;33.97;;;4.72;;
59127;SDS011;44912;52.754;5.994;2023-01-26T09:24:41;33.90;;;4.80;;
59127;SDS011;44912;52.754;5.994;2023-01-26T09:27:06;37.83;;;5.13;;
59127;SDS011;44912;52.754;5.994;2023-01-26T09:29:33;36.22;;;4.95;;
59127;SDS011;44912;52.754;5.994;2023-01-26T09:31:58;35.03;;;4.18;;
59127;SDS011;44912;52.754;5.994;2023-01-26T09:34:24;40.05;;;6.30;;
59127;SDS011;44912;52.754;5.994;2023-01-26T09:36:49;26.65;;;4.85;;
59127;SDS011;44912;52.754;5.994;2023-01-26T09:39:15;32.75;;;4.38;;
59127;SDS011;44912;52.754;5.994;2023-01-26T09:44:46;33.45;;;4.00;;
59127;SDS011;44912;52.754;5.994;2023-01-26T09:47:25;37.33;;;5.78;;
59127;SDS011;44912;52.754;5.994;2023-01-26T09:50:10;35.05;;;6.25;;
59127;SDS011;44912;52.754;5.994;2023-01-26T09:52:52;36.67;;;5.47;;
59127;SDS011;44912;52.754;5.994;2023-01-26T09:55:21;32.85;;;4.63;;
59127;SDS011;44912;52.754;5.994;2023-01-26T09:57:52;26.95;;;4.40;;
59127;SDS011;44912;52.754;5.994;2023-01-26T10:00:25;22.67;;;3.95;;
59127;SDS011;44912;52.754;5.994;2023-01-26T10:03:20;33.45;;;5.38;;
59127;SDS011;44912;52.754;5.994;2023-01-26T10:06:17;38.35;;;6.38;;
59127;SDS011;44912;52.754;5.994;2023-01-26T10:08:47;32.28;;;4.05;;
59127;SDS011;44912;52.754;5.994;2023-01-26T10:11:28;29.42;;;4.13;;
59127;SDS011;44912;52.754;5.994;2023-01-26T10:16:48;30.60;;;3.50;;
59127;SDS011;44912;52.754;5.994;2023-01-26T10:19:22;30.02;;;3.67;;
59127;SDS011;44912;52.754;5.994;2023-01-26T10:21:58;26.15;;;3.83;;
59127;SDS011;44912;52.754;5.994;2023-01-26T10:24:29;29.08;;;3.53;;
59127;SDS011;44912;52.754;5.994;2023-01-26T10:26:57;30.35;;;4.38;;
59127;SDS011;44912;52.754;5.994;2023-01-26T10:29:23;29.25;;;4.35;;
59127;SDS011;44912;52.754;5.994;2023-01-26T10:31:49;27.98;;;3.95;;
59127;SDS011;44912;52.754;5.994;2023-01-26T10:34:16;30.50;;;4.78;;
59127;SDS011;44912;52.754;5.994;2023-01-26T10:36:50;23.63;;;4.35;;
59127;SDS011;44912;52.754;5.994;2023-01-26T10:39:22;33.58;;;5.45;;
59127;SDS011;44912;52.754;5.994;2023-01-26T10:41:55;28.75;;;4.18;;
59127;SDS011;44912;52.754;5.994;2023-01-26T10:44:31;28.25;;;5.03;;
59127;SDS011;44912;52.754;5.994;2023-01-26T10:47:04;28.42;;;4.43;;
59127;SDS011;44912;52.754;5.994;2023-01-26T10:49:42;27.95;;;3.72;;
59127;SDS011;44912;52.754;5.994;2023-01-26T10:52:15;25.40;;;3.85;;
59127;SDS011;44912;52.754;5.994;2023-01-26T10:54:43;22.60;;;2.70;;
59127;SDS011;44912;52.754;5.994;2023-01-26T10:57:17;25.83;;;3.05;;
59127;SDS011;44912;52.754;5.994;2023-01-26T10:59:54;21.02;;;3.58;;
59127;SDS011;44912;52.754;5.994;2023-01-26T11:02:27;25.17;;;3.97;;
59127;SDS011;44912;52.754;5.994;2023-01-26T11:05:02;25.95;;;3.15;;
59127;SDS011;44912;52.754;5.994;2023-01-26T11:07:52;20.50;;;3.28;;
59127;SDS011;44912;52.754;5.994;2023-01-26T11:10:33;21.63;;;4.40;;
59127;SDS011;44912;52.754;5.994;2023-01-26T11:15:50;20.15;;;2.63;;
59127;SDS011;44912;52.754;5.994;2023-01-26T11:18:39;22.98;;;3.17;;
59127;SDS011;44912;52.754;5.994;2023-01-26T11:21:23;20.40;;;3.70;;
59127;SDS011;44912;52.754;5.994;2023-01-26T11:26:51;19.60;;;3.67;;
59127;SDS011;44912;52.754;5.994;2023-01-26T11:40:46;18.27;;;3.95;;
59127;SDS011;44912;52.754;5.994;2023-01-26T11:46:18;19.73;;;2.92;;
59127;SDS011;44912;52.754;5.994;2023-01-26T11:57:58;16.90;;;2.63;;
59127;SDS011;44912;52.754;5.994;2023-01-26T12:00:57;19.52;;;2.30;;
59127;SDS011;44912;52.754;5.994;2023-01-26T12:05:56;18.80;;;2.67;;
59127;SDS011;44912;52.754;5.994;2023-01-26T12:08:30;17.77;;;2.83;;
59127;SDS011;44912;52.754;5.994;2023-01-26T12:11:14;15.38;;;2.17;;
59127;SDS011;44912;52.754;5.994;2023-01-26T12:21:36;13.05;;;1.40;;
59127;SDS011;44912;52.754;5.994;2023-01-26T12:24:05;11.57;;;1.80;;
59127;SDS011;44912;52.754;5.994;2023-01-26T12:26:35;17.73;;;2.05;;
59127;SDS011;44912;52.754;5.994;2023-01-26T12:32:06;14.25;;;2.00;;
59127;SDS011;44912;52.754;5.994;2023-01-26T12:34:35;16.52;;;3.25;;
59127;SDS011;44912;52.754;5.994;2023-01-26T12:39:44;19.48;;;3.05;;
59127;SDS011;44912;52.754;5.994;2023-01-26T12:44:52;14.25;;;2.20;;
59127;SDS011;44912;52.754;5.994;2023-01-26T12:47:25;13.50;;;2.05;;
59127;SDS011;44912;52.754;5.994;2023-01-26T12:50:28;18.60;;;2.15;;
59127;SDS011;44912;52.754;5.994;2023-01-26T12:53:10;17.10;;;2.28;;
59127;SDS011;44912;52.754;5.994;2023-01-26T12:58:22;14.13;;;2.67;;
59127;SDS011;44912;52.754;5.994;2023-01-26T13:01:35;17.77;;;2.15;;
59127;SDS011;44912;52.754;5.994;2023-01-26T13:03:54;17.73;;;2.73;;
59127;SDS011;44912;52.754;5.994;2023-01-26T13:06:25;14.07;;;2.20;;
59127;SDS011;44912;52.754;5.994;2023-01-26T13:09:10;12.65;;;2.15;;
59127;SDS011;44912;52.754;5.994;2023-01-26T13:25:13;12.07;;;1.83;;
59127;SDS011;44912;52.754;5.994;2023-01-26T13:27:54;10.68;;;1.80;;
59127;SDS011;44912;52.754;5.994;2023-01-26T13:32:51;11.88;;;1.75;;
59127;SDS011;44912;52.754;5.994;2023-01-26T13:35:19;16.55;;;2.15;;
59127;SDS011;44912;52.754;5.994;2023-01-26T13:37:59;13.57;;;1.70;;
59127;SDS011;44912;52.754;5.994;2023-01-26T13:40:34;9.70;;;1.80;;
59127;SDS011;44912;52.754;5.994;2023-01-26T13:43:21;10.15;;;1.42;;
59127;SDS011;44912;52.754;5.994;2023-01-26T13:46:28;16.95;;;2.50;;
59127;SDS011;44912;52.754;5.994;2023-01-26T13:48:59;11.32;;;2.17;;
59127;SDS011;44912;52.754;5.994;2023-01-26T13:51:32;14.15;;;2.30;;
59127;SDS011;44912;52.754;5.994;2023-01-26T13:54:01;14.75;;;2.25;;
59127;SDS011;44912;52.754;5.994;2023-01-26T13:56:38;17.63;;;2.65;;
59127;SDS011;44912;52.754;5.994;2023-01-26T13:59:13;13.90;;;1.90;;
59127;SDS011;44912;52.754;5.994;2023-01-26T14:04:14;16.73;;;1.80;;
59127;SDS011;44912;52.754;5.994;2023-01-26T14:06:58;13.55;;;1.88;;
59127;SDS011;44912;52.754;5.994;2023-01-26T14:09:32;14.60;;;2.22;;
59127;SDS011;44912;52.754;5.994;2023-01-26T14:12:04;10.63;;;1.70;;
59127;SDS011;44912;52.754;5.994;2023-01-26T14:14:34;11.90;;;2.17;;
59127;SDS011;44912;52.754;5.994;2023-01-26T14:17:05;9.55;;;1.33;;
59127;SDS011;44912;52.754;5.994;2023-01-26T14:19:31;6.80;;;1.70;;
59127;SDS011;44912;52.754;5.994;2023-01-26T14:22:11;13.38;;;1.90;;
59127;SDS011;44912;52.754;5.994;2023-01-26T14:24:37;10.35;;;1.45;;
59127;SDS011;44912;52.754;5.994;2023-01-26T14:30:00;13.15;;;1.95;;
59127;SDS011;44912;52.754;5.994;2023-01-26T14:32:32;12.45;;;2.00;;
59127;SDS011;44912;52.754;5.994;2023-01-26T14:34:59;14.15;;;1.85;;
59127;SDS011;44912;52.754;5.994;2023-01-26T14:37:25;10.50;;;1.83;;
59127;SDS011;44912;52.754;5.994;2023-01-26T14:42:47;11.05;;;1.83;;
59127;SDS011;44912;52.754;5.994;2023-01-26T14:45:16;10.88;;;1.67;;
59127;SDS011;44912;52.754;5.994;2023-01-26T14:47:44;12.02;;;1.77;;
59127;SDS011;44912;52.754;5.994;2023-01-26T14:50:23;11.95;;;1.60;;
59127;SDS011;44912;52.754;5.994;2023-01-26T14:52:52;11.75;;;1.60;;
59127;SDS011;44912;52.754;5.994;2023-01-26T14:57:47;13.27;;;1.60;;
59127;SDS011;44912;52.754;5.994;2023-01-26T15:00:23;10.27;;;1.40;;
59127;SDS011;44912;52.754;5.994;2023-01-26T15:02:53;12.98;;;1.50;;
59127;SDS011;44912;52.754;5.994;2023-01-26T15:05:22;11.93;;;1.70;;
59127;SDS011;44912;52.754;5.994;2023-01-26T15:15:38;12.10;;;1.70;;
59127;SDS011;44912;52.754;5.994;2023-01-26T15:20:54;10.80;;;1.38;;
59127;SDS011;44912;52.754;5.994;2023-01-26T15:23:30;13.52;;;2.00;;
59127;SDS011;44912;52.754;5.994;2023-01-26T15:28:49;13.45;;;1.60;;
59127;SDS011;44912;52.754;5.994;2023-01-26T15:31:19;11.38;;;1.65;;
59127;SDS011;44912;52.754;5.994;2023-01-26T15:33:50;13.82;;;1.70;;
59127;SDS011;44912;52.754;5.994;2023-01-26T15:36:31;13.55;;;1.77;;
59127;SDS011;44912;52.754;5.994;2023-01-26T15:39:09;12.70;;;2.15;;
59127;SDS011;44912;52.754;5.994;2023-01-26T15:41:37;15.77;;;2.30;;
59127;SDS011;44912;52.754;5.994;2023-01-26T15:44:03;14.10;;;2.20;;
59127;SDS011;44912;52.754;5.994;2023-01-26T15:46:29;13.23;;;2.72;;
59127;SDS011;44912;52.754;5.994;2023-01-26T15:48:55;14.98;;;1.90;;
59127;SDS011;44912;52.754;5.994;2023-01-26T15:51:21;17.23;;;2.53;;
59127;SDS011;44912;52.754;5.994;2023-01-26T15:53:46;12.70;;;1.90;;
59127;SDS011;44912;52.754;5.994;2023-01-26T15:56:13;15.60;;;2.35;;
59127;SDS011;44912;52.754;5.994;2023-01-26T15:58:39;16.38;;;2.85;;
59127;SDS011;44912;52.754;5.994;2023-01-26T16:01:05;17.15;;;2.30;;
59127;SDS011;44912;52.754;5.994;2023-01-26T16:03:33;14.75;;;2.08;;
59127;SDS011;44912;52.754;5.994;2023-01-26T16:05:58;18.55;;;2.97;;
59127;SDS011;44912;52.754;5.994;2023-01-26T16:08:24;19.60;;;2.72;;
59127;SDS011;44912;52.754;5.994;2023-01-26T16:10:49;17.63;;;2.38;;
59127;SDS011;44912;52.754;5.994;2023-01-26T16:13:16;14.95;;;2.25;;
59127;SDS011;44912;52.754;5.994;2023-01-26T16:15:49;17.55;;;2.88;;
59127;SDS011;44912;52.754;5.994;2023-01-26T16:18:17;21.08;;;2.63;;
59127;SDS011;44912;52.754;5.994;2023-01-26T16:20:43;17.02;;;2.58;;
59127;SDS011;44912;52.754;5.994;2023-01-26T16:23:21;19.33;;;2.53;;
59127;SDS011;44912;52.754;5.994;2023-01-26T16:25:48;17.77;;;2.72;;
59127;SDS011;44912;52.754;5.994;2023-01-26T16:28:14;14.90;;;2.53;;